Time;durP1;ratioP1;P1;durP2;ratioP2;P2;SDS_P1;SDS_P2;PMS_P1;PMS_P2;Temp;Humidity;BMP_temperature;BMP_pressure;BME280_temperature;BME280_humidity;BME280_pressure;Samples;Min_cycle;Max_cycle;Signal;HPM_P1;HPM_P2
2021/07/23 00:01:22;;;;;;;14.70;9.07;;;;;;;23.23;54.08;101250.88;5073981;28;20048;-64
2021/07/23 00:03:50;;;;;;;17.95;9.60;;;;;;;22.96;54.98;101260.59;5073724;28;20060;-64
2021/07/23 00:06:31;;;;;;;20.75;9.80;;;;;;;22.93;55.52;101252.13;5073202;28;20074;-64
2021/07/23 00:08:58;;;;;;;17.55;9.27;;;;;;;22.75;55.85;101251.13;5073647;28;20052;-64
2021/07/23 00:11:26;;;;;;;15.07;8.88;;;;;;;22.51;56.64;101252.38;5055701;28;20048;-64
2021/07/23 00:13:53;;;;;;;22.88;9.15;;;;;;;22.59;56.20;101242.91;5073569;28;20047;-64
2021/07/23 00:16:20;;;;;;;14.52;9.40;;;;;;;22.70;56.36;101246.63;5073268;28;20044;-63
2021/07/23 00:18:47;;;;;;;14.82;9.55;;;;;;;22.76;55.84;101252.72;5073514;28;20044;-65
2021/07/23 00:21:15;;;;;;;11.77;9.15;;;;;;;22.91;55.57;101243.28;5055717;28;20059;-65
2021/07/23 00:23:42;;;;;;;15.38;9.48;;;;;;;22.89;55.69;101234.44;5055033;28;20056;-65
2021/07/23 00:26:10;;;;;;;15.05;8.93;;;;;;;22.52;56.61;101244.75;5072942;28;20048;-64
2021/07/23 00:28:38;;;;;;;13.57;9.25;;;;;;;22.80;56.02;101234.72;5072951;28;20044;-64
2021/07/23 00:31:05;;;;;;;14.75;8.82;;;;;;;22.98;55.42;101241.34;5055390;28;20056;-64
2021/07/23 00:33:32;;;;;;;15.23;9.60;;;;;;;22.59;56.43;101230.84;5073354;28;20072;-63
2021/07/23 00:36:01;;;;;;;15.73;9.00;;;;;;;22.48;56.83;101235.47;5073014;28;20063;-64
2021/07/23 00:38:28;;;;;;;13.25;9.68;;;;;;;22.41;56.85;101235.38;5074797;28;20056;-63
2021/07/23 00:40:56;;;;;;;15.45;9.48;;;;;;;22.18;57.92;101227.88;5059098;28;20056;-66
2021/07/23 00:43:23;;;;;;;12.07;9.43;;;;;;;22.56;56.76;101234.44;5077058;28;20063;-64
2021/07/23 00:45:51;;;;;;;14.35;9.88;;;;;;;22.35;57.16;101226.50;5059098;28;20044;-64
2021/07/23 00:48:19;;;;;;;12.55;9.32;;;;;;;22.63;56.72;101220.47;5042654;28;20048;-63
2021/07/23 00:50:47;;;;;;;11.40;9.18;;;;;;;22.58;56.60;101218.78;5077310;28;20051;-63
2021/07/23 00:53:15;;;;;;;13.32;9.45;;;;;;;22.61;56.45;101226.47;5059513;28;20488;-63
2021/07/23 00:55:52;;;;;;;17.55;10.80;;;;;;;22.71;56.42;101222.16;5057436;28;20067;-63
2021/07/23 00:58:26;;;;;;;17.58;10.13;;;;;;;22.63;56.45;101212.06;5076441;28;20041;-64
2021/07/23 01:00:57;;;;;;;16.83;10.07;;;;;;;22.45;57.30;101214.59;5059301;28;20055;-63
2021/07/23 01:03:31;;;;;;;18.67;9.95;;;;;;;22.56;56.83;101203.53;5075645;28;20076;-64
2021/07/23 01:05:59;;;;;;;16.92;10.43;;;;;;;22.67;56.57;101210.06;5075480;28;20051;-64
2021/07/23 01:08:28;;;;;;;14.50;9.13;;;;;;;22.34;57.44;101200.44;5059110;28;20627;-64
2021/07/23 01:10:56;;;;;;;14.60;9.88;;;;;;;21.90;59.04;101201.38;5061880;28;20064;-64
2021/07/23 01:13:39;;;;;;;19.23;9.82;;;;;;;22.47;57.52;101188.94;5055701;28;20053;-64
2021/07/23 01:16:07;;;;;;;16.08;11.55;;;;;;;22.47;57.16;101194.56;5039171;28;20048;-63
2021/07/23 01:18:34;;;;;;;17.15;10.23;;;;;;;22.21;57.75;101201.84;5055224;28;20041;-64
2021/07/23 01:21:02;;;;;;;16.80;9.27;;;;;;;22.28;58.01;101195.53;5056691;28;20057;-62
2021/07/23 01:23:31;;;;;;;15.10;10.35;;;;;;;22.10;58.12;101195.28;5056567;28;20412;-64
2021/07/23 01:26:04;;;;;;;15.25;9.48;;;;;;;21.83;59.37;101192.84;5054988;28;20053;-64
2021/07/23 01:28:35;;;;;;;13.52;9.25;;;;;;;22.14;58.38;101192.53;5056039;28;20040;-63
2021/07/23 01:31:06;;;;;;;16.77;9.02;;;;;;;22.17;58.33;101195.38;5055243;28;20056;-63
2021/07/23 01:33:36;;;;;;;14.75;9.20;;;;;;;22.00;58.76;101193.13;5038947;28;20053;-65
2021/07/23 01:36:05;;;;;;;15.30;9.33;;;;;;;22.05;58.56;101190.00;5054903;28;20059;-64
2021/07/23 01:38:40;;;;;;;14.10;9.48;;;;;;;21.85;59.42;101187.69;5039330;28;20299;-65
2021/07/23 01:41:07;;;;;;;14.15;9.38;;;;;;;21.81;59.74;101184.81;5056108;28;20071;-64
2021/07/23 01:43:34;;;;;;;17.02;9.38;;;;;;;21.75;59.90;101191.94;5056361;28;20048;-64
2021/07/23 01:46:02;;;;;;;15.48;10.00;;;;;;;21.55;60.07;101187.59;5055922;28;20408;-64
2021/07/23 01:48:58;;;;;;;13.40;9.48;;;;;;;21.64;60.27;101185.34;5053985;28;20642;-65
2021/07/23 01:51:34;;;;;;;16.17;9.43;;;;;;;21.92;59.21;101185.81;5054629;28;20052;-64
2021/07/23 01:54:03;;;;;;;16.27;9.93;;;;;;;21.77;59.73;101181.16;5059854;28;20071;-64
2021/07/23 01:56:30;;;;;;;19.98;10.50;;;;;;;21.69;59.85;101173.00;5084421;28;20043;-64
2021/07/23 01:59:03;;;;;;;14.60;9.75;;;;;;;21.58;60.43;101186.03;5077684;28;20051;-64
2021/07/23 02:01:35;;;;;;;17.13;9.57;;;;;;;21.62;60.37;101184.91;5078252;28;20055;-64
2021/07/23 02:04:24;;;;;;;17.05;10.43;;;;;;;21.84;59.61;101180.47;5094328;28;20261;-64
2021/07/23 02:06:51;;;;;;;15.43;9.40;;;;;;;21.93;59.05;101186.63;5095676;28;20044;-64
2021/07/23 02:09:21;;;;;;;13.27;9.90;;;;;;;21.72;59.96;101184.28;5076852;28;20059;-64
2021/07/23 02:11:58;;;;;;;13.80;9.95;;;;;;;21.80;59.56;101185.22;5077340;28;20056;-64
2021/07/23 02:14:43;;;;;;;15.20;10.95;;;;;;;21.69;59.71;101182.22;5077145;28;20052;-64
2021/07/23 02:17:13;;;;;;;17.00;10.30;;;;;;;21.90;59.17;101179.75;5077455;28;20047;-65
2021/07/23 02:19:43;;;;;;;15.10;10.02;;;;;;;21.90;59.19;101178.94;5077311;28;20055;-64
2021/07/23 02:22:16;;;;;;;15.02;10.63;;;;;;;21.71;59.35;101174.22;5061737;28;20525;-64
2021/07/23 02:24:44;;;;;;;12.98;9.68;;;;;;;21.56;59.66;101175.19;5095192;28;20506;-64
2021/07/23 02:27:15;;;;;;;18.83;10.90;;;;;;;21.74;59.38;101172.69;5077185;28;20059;-64
2021/07/23 02:29:49;;;;;;;16.23;11.20;;;;;;;21.73;59.65;101171.88;5077396;28;20059;-65
2021/07/23 02:32:19;;;;;;;13.50;10.27;;;;;;;21.46;60.77;101180.63;5076427;28;20415;-65
2021/07/23 02:34:47;;;;;;;13.43;10.82;;;;;;;21.19;61.83;101172.19;5076256;28;20047;-64
2021/07/23 02:37:15;;;;;;;17.25;11.02;;;;;;;21.35;61.31;101177.66;5077257;28;20479;-64
2021/07/23 02:39:42;;;;;;;13.32;10.20;;;;;;;21.15;62.02;101171.31;5076648;28;20443;-65
2021/07/23 02:42:10;;;;;;;17.38;10.60;;;;;;;21.27;61.92;101169.50;5077201;28;20048;-64
2021/07/23 02:44:43;;;;;;;16.80;11.07;;;;;;;21.64;60.49;101168.50;5076876;28;20063;-64
2021/07/23 02:47:11;;;;;;;22.80;11.30;;;;;;;21.13;61.94;101170.88;5077130;28;20051;-63
2021/07/23 02:49:38;;;;;;;18.60;11.35;;;;;;;21.32;61.31;101167.22;5094956;28;20044;-64
2021/07/23 02:52:06;;;;;;;14.95;11.13;;;;;;;21.54;60.97;101163.56;5075925;28;20609;-64
2021/07/23 02:54:37;;;;;;;17.65;10.93;;;;;;;21.37;60.92;101163.25;5075791;28;20060;-64
2021/07/23 02:57:05;;;;;;;14.73;10.18;;;;;;;21.18;61.85;101155.75;5063176;28;20055;-64
2021/07/23 02:59:39;;;;;;;14.13;10.88;;;;;;;20.94;62.61;101151.28;5056475;28;20041;-63
2021/07/23 03:02:11;;;;;;;20.38;11.68;;;;;;;21.03;63.14;101156.66;5055700;28;20057;-63
2021/07/23 03:04:40;;;;;;;18.63;11.82;;;;;;;20.90;63.13;101158.81;5056295;28;20051;-63
2021/07/23 03:07:08;;;;;;;18.42;11.23;;;;;;;20.49;64.32;101156.81;5056339;28;20617;-63
2021/07/23 03:09:35;;;;;;;18.80;11.57;;;;;;;20.82;63.89;101156.25;5055937;28;20044;-63
2021/07/23 03:12:04;;;;;;;15.77;11.05;;;;;;;21.15;63.26;101148.06;5056269;28;20411;-63
2021/07/23 03:14:35;;;;;;;14.27;10.57;;;;;;;21.35;62.00;101149.63;5056262;28;20049;-63
2021/07/23 03:17:09;;;;;;;15.20;11.45;;;;;;;21.19;62.71;101157.34;5039402;28;20412;-63
2021/07/23 03:19:37;;;;;;;18.40;11.50;;;;;;;21.14;62.91;101154.88;5055896;28;20055;-63
2021/07/23 03:22:05;;;;;;;17.75;11.63;;;;;;;21.02;63.19;101150.28;5073895;28;20051;-62
2021/07/23 03:24:35;;;;;;;19.77;12.20;;;;;;;20.72;64.18;101149.28;5056460;28;20052;-65
2021/07/23 03:27:05;;;;;;;17.10;12.20;;;;;;;20.73;64.61;101144.50;5056074;28;20052;-63
2021/07/23 03:29:39;;;;;;;19.63;11.23;;;;;;;20.95;63.97;101138.09;5056097;28;20055;-63
2021/07/23 03:32:07;;;;;;;16.05;11.32;;;;;;;20.73;64.32;101148.09;5055962;28;20052;-64
2021/07/23 03:34:34;;;;;;;18.77;11.90;;;;;;;20.94;63.95;101142.88;5073769;28;20048;-64
2021/07/23 03:37:19;;;;;;;19.38;11.27;;;;;;;20.94;63.60;101139.25;5073810;28;20048;-63
2021/07/23 03:39:54;;;;;;;17.15;11.73;;;;;;;20.95;63.85;101138.91;5073599;28;20045;-63
2021/07/23 03:42:25;;;;;;;19.58;12.13;;;;;;;20.79;64.25;101129.81;5056148;28;20056;-64
2021/07/23 03:45:12;;;;;;;16.42;11.82;;;;;;;20.94;63.91;101126.06;5055684;28;20052;-63
2021/07/23 03:47:41;;;;;;;17.42;11.32;;;;;;;20.91;63.90;101123.22;5055854;28;20048;-64
2021/07/23 03:50:09;;;;;;;20.33;12.30;;;;;;;20.97;63.46;101107.72;5056632;28;20059;-63
2021/07/23 03:52:39;;;;;;;21.42;12.10;;;;;;;20.64;64.76;101105.53;5055790;28;20048;-64
2021/07/23 03:55:26;;;;;;;19.17;12.63;;;;;;;20.65;65.15;101098.75;5061502;28;20075;-63
2021/07/23 03:57:54;;;;;;;18.42;12.27;;;;;;;20.70;65.08;101095.66;5019212;28;20060;-65
2021/07/23 04:00:24;;;;;;;18.65;12.40;;;;;;;20.48;66.12;101098.41;5051919;28;20053;-64
2021/07/23 04:02:56;;;;;;;21.10;12.20;;;;;;;20.36;66.24;101087.41;5036539;28;20378;-63
2021/07/23 04:05:23;;;;;;;16.95;12.55;;;;;;;20.48;65.73;101079.66;5035652;28;20048;-63
2021/07/23 04:07:52;;;;;;;18.33;13.18;;;;;;;20.59;65.41;101077.84;5052263;28;20056;-64
2021/07/23 04:10:20;;;;;;;19.77;12.52;;;;;;;20.40;66.14;101080.69;5052835;28;20055;-64
2021/07/23 04:12:48;;;;;;;17.73;12.00;;;;;;;20.69;65.21;101085.66;5018507;28;20163;-62
2021/07/23 04:15:15;;;;;;;17.90;11.75;;;;;;;20.70;65.31;101090.03;5035623;28;20064;-64
2021/07/23 04:18:01;;;;;;;17.58;12.57;;;;;;;20.84;64.94;101095.91;5053291;28;20037;-63
2021/07/23 04:20:30;;;;;;;19.80;12.45;;;;;;;21.00;64.16;101093.81;5035874;28;20057;-64
2021/07/23 04:22:58;;;;;;;19.45;12.15;;;;;;;20.94;64.52;101078.47;5055648;28;20067;-64
2021/07/23 04:25:25;;;;;;;21.13;12.40;;;;;;;21.02;64.52;101085.03;5072880;28;20415;-64
2021/07/23 04:27:53;;;;;;;25.80;12.70;;;;;;;21.16;63.83;101085.28;5055293;28;20052;-63
2021/07/23 04:30:29;;;;;;;18.75;12.55;;;;;;;20.84;64.86;101081.09;5055301;28;20049;-63
2021/07/23 04:33:15;;;;;;;19.08;13.20;;;;;;;20.69;65.35;101080.03;5073484;28;20041;-63
2021/07/23 04:36:16;;;;;;;19.00;13.13;;;;;;;21.09;64.49;101079.56;5073344;28;20511;-64
2021/07/23 04:38:44;;;;;;;20.13;13.43;;;;;;;20.56;65.71;101078.59;5055285;28;20060;-64
2021/07/23 04:41:12;;;;;;;19.48;12.75;;;;;;;20.45;66.64;101073.97;5055381;28;20052;-64
2021/07/23 04:43:47;;;;;;;19.63;13.30;;;;;;;20.53;66.32;101075.72;5056130;28;20499;-63
2021/07/23 04:46:14;;;;;;;19.95;13.20;;;;;;;20.48;66.35;101087.22;5056311;28;20056;-63
2021/07/23 04:48:41;;;;;;;18.33;13.55;;;;;;;20.40;66.86;101080.69;5054755;28;20711;-63
2021/07/23 04:51:31;;;;;;;20.48;12.73;;;;;;;20.64;65.86;101074.72;5055127;28;20045;-63
2021/07/23 04:54:18;;;;;;;19.48;13.35;;;;;;;20.92;65.06;101075.22;5072863;28;20055;-63
2021/07/23 04:57:04;;;;;;;18.77;12.73;;;;;;;20.85;64.86;101082.72;5086905;28;20067;-64
2021/07/23 04:59:32;;;;;;;24.70;13.40;;;;;;;20.90;64.72;101088.78;5093350;28;20051;-65
2021/07/23 05:02:00;;;;;;;19.15;13.57;;;;;;;20.79;65.10;101089.78;5075384;28;20052;-64
2021/07/23 05:04:27;;;;;;;20.75;13.30;;;;;;;20.71;65.31;101090.88;5093304;28;20056;-64
2021/07/23 05:06:55;;;;;;;20.33;13.35;;;;;;;20.49;66.41;101084.06;5075448;28;20040;-63
2021/07/23 05:09:25;;;;;;;18.95;12.90;;;;;;;20.61;65.62;101080.25;5075151;28;20063;-64
2021/07/23 05:11:53;;;;;;;21.13;13.65;;;;;;;20.87;65.32;101083.16;5075267;28;20067;-63
2021/07/23 05:14:21;;;;;;;18.95;12.85;;;;;;;20.87;65.09;101083.16;5093099;28;20043;-65
2021/07/23 05:16:49;;;;;;;23.27;13.77;;;;;;;20.70;65.34;101070.44;5093425;28;20546;-64
2021/07/23 05:19:17;;;;;;;18.15;13.43;;;;;;;21.03;64.61;101070.66;5076526;28;20434;-63
2021/07/23 05:21:45;;;;;;;20.45;12.93;;;;;;;20.85;64.89;101068.72;5021545;28;20550;-64
2021/07/23 05:24:12;;;;;;;24.55;12.70;;;;;;;20.74;65.55;101068.53;5072997;28;20048;-64
2021/07/23 05:26:40;;;;;;;23.15;13.77;;;;;;;20.60;65.45;101071.06;5058229;28;20037;-65
2021/07/23 05:29:08;;;;;;;20.60;13.85;;;;;;;20.85;65.30;101075.09;5076314;28;20048;-63
2021/07/23 05:31:39;;;;;;;23.02;13.27;;;;;;;20.88;65.28;101067.97;5076318;28;20056;-64
2021/07/23 05:34:07;;;;;;;23.40;13.98;;;;;;;20.95;64.88;101066.09;5075997;28;20051;-63
2021/07/23 05:36:34;;;;;;;23.88;14.40;;;;;;;20.54;65.61;101066.16;5076478;28;20542;-64
2021/07/23 05:39:01;;;;;;;24.02;13.52;;;;;;;20.78;65.05;101074.97;5075937;28;20531;-64
2021/07/23 05:41:30;;;;;;;24.88;13.68;;;;;;;21.29;63.51;101078.25;5057806;28;20048;-63
2021/07/23 05:43:57;;;;;;;18.48;13.13;;;;;;;21.43;63.00;101074.88;5076061;28;20044;-63
2021/07/23 05:46:26;;;;;;;22.17;13.60;;;;;;;21.25;63.33;101066.22;5076171;28;20060;-64
2021/07/23 05:48:53;;;;;;;20.98;13.63;;;;;;;21.29;62.76;101067.06;5075703;28;20044;-64
2021/07/23 05:51:20;;;;;;;19.30;13.82;;;;;;;20.77;64.58;101064.16;5076093;28;20053;-63
2021/07/23 05:53:47;;;;;;;20.20;13.50;;;;;;;20.64;65.08;101066.31;5075514;28;20738;-64
2021/07/23 05:56:15;;;;;;;22.30;13.70;;;;;;;20.88;64.10;101060.38;5057823;28;20056;-63
2021/07/23 05:58:42;;;;;;;20.58;14.15;;;;;;;20.93;63.99;101053.63;5075747;28;20049;-63
2021/07/23 06:01:09;;;;;;;23.27;13.52;;;;;;;21.18;63.91;101049.28;5075615;28;20048;-63
2021/07/23 06:03:37;;;;;;;21.05;14.45;;;;;;;21.11;63.28;101049.97;5075635;28;20072;-64
2021/07/23 06:06:05;;;;;;;23.33;13.98;;;;;;;21.37;62.97;101046.38;5075645;28;20056;-63
2021/07/23 06:08:54;;;;;;;21.50;13.50;;;;;;;21.46;62.57;101041.31;5075769;28;20048;-63
2021/07/23 06:11:21;;;;;;;27.08;14.57;;;;;;;21.43;62.35;101033.63;5057825;28;20045;-63
2021/07/23 06:13:48;;;;;;;22.83;13.68;;;;;;;21.42;62.25;101029.22;5075581;28;20423;-64
2021/07/23 06:16:16;;;;;;;21.63;13.63;;;;;;;21.40;62.34;101027.97;5075410;28;20052;-64
2021/07/23 06:18:43;;;;;;;22.55;13.15;;;;;;;21.43;62.30;101027.25;5075260;28;20530;-63
2021/07/23 06:21:10;;;;;;;22.65;14.32;;;;;;;21.48;62.18;101024.88;5075554;28;20384;-63
2021/07/23 06:23:37;;;;;;;22.98;13.77;;;;;;;21.92;60.79;101019.50;5075012;28;20064;-64
2021/07/23 06:26:05;;;;;;;24.40;13.52;;;;;;;21.88;61.14;101021.47;5074993;28;20411;-65
2021/07/23 06:28:33;;;;;;;20.02;14.38;;;;;;;21.80;60.86;101017.75;5075330;28;20532;-63
2021/07/23 06:31:04;;;;;;;23.02;14.20;;;;;;;21.60;61.51;101021.06;5075561;28;20057;-64
2021/07/23 06:33:31;;;;;;;23.20;15.07;;;;;;;21.78;60.67;101013.69;5075171;28;20490;-64
2021/07/23 06:36:02;;;;;;;27.88;15.63;;;;;;;21.58;61.09;101017.81;5074905;28;20048;-64
2021/07/23 06:38:29;;;;;;;23.75;14.40;;;;;;;21.61;60.56;101017.06;5074909;28;20045;-64
2021/07/23 06:40:56;;;;;;;19.35;13.43;;;;;;;21.53;61.17;101013.34;5074590;28;20488;-63
2021/07/23 06:43:23;;;;;;;23.35;14.40;;;;;;;21.46;61.78;101004.88;5074765;28;20048;-64
2021/07/23 06:45:55;;;;;;;22.65;13.80;;;;;;;21.71;60.70;101007.97;5055984;28;20056;-64
2021/07/23 06:48:22;;;;;;;23.05;13.30;;;;;;;21.91;60.15;100999.06;5074685;28;20051;-64
2021/07/23 06:50:50;;;;;;;26.40;13.80;;;;;;;21.65;60.67;101009.50;5040180;28;20488;-64
2021/07/23 06:53:18;;;;;;;21.63;14.77;;;;;;;21.74;60.41;101008.00;5074696;28;20049;-64
2021/07/23 06:55:45;;;;;;;19.92;13.80;;;;;;;21.90;60.13;101008.66;5058837;28;20415;-65
2021/07/23 06:58:13;;;;;;;22.77;14.63;;;;;;;21.57;61.08;101005.81;5095016;28;20515;-64
2021/07/23 07:00:40;;;;;;;25.98;14.80;;;;;;;21.61;61.02;101008.66;5059497;28;20048;-62
2021/07/23 07:03:08;;;;;;;28.73;14.38;;;;;;;21.67;61.00;100993.91;5094677;28;20059;-64
2021/07/23 07:05:35;;;;;;;27.95;14.40;;;;;;;22.05;59.87;100988.00;5075786;28;20554;-64
2021/07/23 07:08:03;;;;;;;26.58;13.70;;;;;;;22.34;58.67;100995.53;5094231;28;20059;-63
2021/07/23 07:10:30;;;;;;;24.75;13.07;;;;;;;22.21;59.00;100980.13;5076204;28;20047;-63
2021/07/23 07:12:58;;;;;;;26.58;14.00;;;;;;;21.75;60.35;100976.00;5094539;28;20055;-64
2021/07/23 07:15:26;;;;;;;22.77;12.95;;;;;;;21.92;60.21;100978.22;5094488;28;20534;-64
2021/07/23 07:18:00;;;;;;;22.60;14.05;;;;;;;21.90;59.58;100974.19;5094324;28;20048;-64
2021/07/23 07:20:29;;;;;;;19.35;12.88;;;;;;;22.05;59.43;100973.97;5094185;28;20055;-63
2021/07/23 07:22:56;;;;;;;34.88;13.93;;;;;;;22.16;59.05;100974.88;5094282;28;20087;-63
2021/07/23 07:25:24;;;;;;;28.60;15.02;;;;;;;22.29;58.71;100976.22;5093586;28;20056;-63
2021/07/23 07:27:53;;;;;;;26.00;13.60;;;;;;;22.16;59.16;100976.88;5094080;28;20040;-63
2021/07/23 07:30:21;;;;;;;26.30;13.93;;;;;;;22.29;58.71;100976.22;5076496;28;20059;-64
2021/07/23 07:32:48;;;;;;;21.42;13.88;;;;;;;22.51;57.89;100976.44;5094184;28;20067;-65
2021/07/23 07:35:16;;;;;;;28.30;14.38;;;;;;;22.85;56.53;100989.16;5094462;28;20048;-63
2021/07/23 07:37:43;;;;;;;23.65;13.48;;;;;;;23.38;54.97;100984.72;5076216;28;20044;-64
2021/07/23 07:40:11;;;;;;;22.73;12.73;;;;;;;23.51;54.18;100983.19;5093738;28;20048;-64
2021/07/23 07:42:38;;;;;;;20.08;12.55;;;;;;;23.59;54.31;100992.50;5094026;28;20051;-64
2021/07/23 07:45:06;;;;;;;24.05;12.85;;;;;;;23.78;53.45;100990.13;5093751;28;20060;-64
2021/07/23 07:47:33;;;;;;;22.55;12.95;;;;;;;23.92;53.33;100984.56;5093297;28;20056;-64
2021/07/23 07:50:00;;;;;;;21.27;12.57;;;;;;;23.89;53.50;100978.91;5094180;28;20044;-64
2021/07/23 07:52:28;;;;;;;19.77;12.45;;;;;;;23.93;52.96;100974.94;5094171;28;20276;-64
2021/07/23 07:54:55;;;;;;;22.42;12.65;;;;;;;24.06;52.44;100973.38;5075139;28;20048;-64
2021/07/23 07:57:23;;;;;;;23.63;12.40;;;;;;;24.09;52.17;100971.78;5077983;28;20751;-63
2021/07/23 07:59:50;;;;;;;21.27;11.90;;;;;;;24.36;51.74;100975.84;5073896;28;20044;-64
2021/07/23 08:02:18;;;;;;;19.48;12.13;;;;;;;23.89;52.37;100978.91;5073596;28;20041;-65
2021/07/23 08:04:46;;;;;;;19.92;11.90;;;;;;;24.13;52.41;100969.78;5073558;28;20052;-63
2021/07/23 08:07:20;;;;;;;17.98;12.90;;;;;;;24.10;51.86;100968.56;5074429;28;20044;-64
2021/07/23 08:09:52;;;;;;;22.08;12.57;;;;;;;24.29;51.98;100959.75;5074657;28;20067;-65
2021/07/23 08:12:24;;;;;;;26.55;12.30;;;;;;;24.79;50.85;100951.34;5074872;28;20056;-64
2021/07/23 08:14:51;;;;;;;28.00;11.88;;;;;;;24.85;50.46;100955.34;5055936;28;20044;-64
2021/07/23 08:17:19;;;;;;;24.25;11.73;;;;;;;24.76;50.92;100955.78;5073693;28;20048;-65
2021/07/23 08:19:46;;;;;;;23.23;12.40;;;;;;;24.33;51.29;100951.31;5073233;28;20048;-64
2021/07/23 08:22:14;;;;;;;21.95;11.50;;;;;;;24.21;52.27;100949.69;5073460;28;20046;-64
2021/07/23 08:24:43;;;;;;;22.40;12.63;;;;;;;24.56;50.78;100945.28;5072997;28;20052;-65
2021/07/23 08:27:10;;;;;;;15.13;11.30;;;;;;;24.64;50.65;100942.06;5073657;28;20671;-64
2021/07/23 08:29:37;;;;;;;20.80;12.43;;;;;;;24.47;50.65;100945.69;5055306;28;20063;-64
2021/07/23 08:32:09;;;;;;;17.33;11.52;;;;;;;24.48;50.77;100947.28;5073565;28;20052;-64
2021/07/23 08:34:36;;;;;;;18.33;11.63;;;;;;;24.74;50.23;100941.28;5073021;28;20466;-65
2021/07/23 08:37:05;;;;;;;19.90;11.05;;;;;;;24.82;49.22;100937.25;5073328;28;20044;-65
2021/07/23 08:39:33;;;;;;;19.45;11.52;;;;;;;24.68;50.39;100931.59;5072930;28;20052;-65
2021/07/23 08:42:29;;;;;;;23.13;11.43;;;;;;;25.21;49.06;100935.16;5037944;28;20049;-64
2021/07/23 08:44:58;;;;;;;20.80;11.25;;;;;;;25.61;47.78;100931.03;5072915;28;20626;-63
2021/07/23 08:47:25;;;;;;;20.77;11.10;;;;;;;25.73;47.64;100919.28;5073299;28;20587;-65
2021/07/23 08:49:53;;;;;;;18.23;10.82;;;;;;;25.69;47.84;100917.66;5073034;28;20048;-65
2021/07/23 08:52:43;;;;;;;20.73;11.75;;;;;;;25.67;47.66;100926.53;5054612;28;20049;-65
2021/07/23 08:55:15;;;;;;;19.50;11.05;;;;;;;25.80;47.23;100924.06;5072776;28;20060;-65
2021/07/23 08:57:44;;;;;;;15.85;10.70;;;;;;;26.00;46.87;100913.84;5073707;28;20533;-64
2021/07/23 09:00:13;;;;;;;14.52;11.25;;;;;;;26.05;46.57;100919.91;5078027;28;20052;-65
2021/07/23 09:02:56;;;;;;;28.10;10.80;;;;;;;25.96;46.43;100908.22;5078709;28;20693;-64
2021/07/23 09:05:34;;;;;;;21.45;11.48;;;;;;;26.32;46.02;100901.16;5096341;28;20060;-64
2021/07/23 09:08:10;;;;;;;19.90;12.02;;;;;;;26.31;46.51;100902.34;5097041;28;20548;-65
2021/07/23 09:10:37;;;;;;;17.90;10.77;;;;;;;26.08;46.28;100907.00;5096659;28;20836;-64
2021/07/23 09:13:06;;;;;;;16.35;10.98;;;;;;;26.12;46.35;100900.09;5062030;28;20059;-64
2021/07/23 09:15:40;;;;;;;16.90;9.68;;;;;;;26.25;45.16;100898.38;5096615;28;20052;-64
2021/07/23 09:18:31;;;;;;;15.57;9.82;;;;;;;26.25;45.49;100898.38;5089674;28;20542;-65
2021/07/23 09:21:03;;;;;;;16.92;9.60;;;;;;;26.31;45.30;100891.06;5076262;28;20060;-65
2021/07/23 09:23:40;;;;;;;16.85;10.13;;;;;;;26.40;45.79;100882.91;5076772;28;20055;-64
2021/07/23 09:26:09;;;;;;;15.90;10.40;;;;;;;26.51;44.59;100886.47;5076195;28;20052;-64
2021/07/23 09:28:45;;;;;;;;;;;;;;;26.23;44.86;100883.88;5077158;28;20067;-64
2021/07/23 09:31:28;;;;;;;17.67;9.80;;;;;;;26.45;44.83;100884.47;5076453;28;19920;-65
2021/07/23 09:34:00;;;;;;;17.85;9.65;;;;;;;26.64;44.49;100873.41;5058305;28;20059;-64
2021/07/23 09:36:28;;;;;;;14.32;9.60;;;;;;;26.51;44.19;100875.16;5076138;28;20049;-65
2021/07/23 09:39:19;;;;;;;17.25;10.35;;;;;;;26.55;44.33;100881.56;5076279;28;20087;-64
2021/07/23 09:42:00;;;;;;;16.10;10.15;;;;;;;26.67;43.99;100872.59;5075963;28;20052;-63
2021/07/23 09:44:27;;;;;;;15.02;9.70;;;;;;;26.59;42.95;100870.22;5076011;28;20052;-65
2021/07/23 09:46:55;;;;;;;20.55;10.15;;;;;;;26.76;42.46;100863.66;5058151;28;20055;-64
2021/07/23 09:49:26;;;;;;;14.88;10.38;;;;;;;26.70;42.88;100847.53;5075967;28;20060;-64
2021/07/23 09:52:05;;;;;;;15.00;9.50;;;;;;;26.50;43.65;100850.16;5076226;28;20052;-65
2021/07/23 09:54:33;;;;;;;17.02;9.52;;;;;;;26.56;43.70;100837.97;5075760;28;20676;-65
2021/07/23 09:57:03;;;;;;;17.20;10.82;;;;;;;26.82;43.57;100839.34;5058079;28;20056;-65
2021/07/23 09:59:57;;;;;;;19.02;9.27;;;;;;;27.17;42.81;100832.47;5076017;28;20063;-63
2021/07/23 10:02:27;;;;;;;14.68;10.25;;;;;;;27.35;43.12;100828.22;5075551;28;20048;-66
2021/07/23 10:05:10;;;;;;;15.82;9.45;;;;;;;26.87;42.75;100821.91;5057715;28;20048;-65
2021/07/23 10:07:40;;;;;;;16.58;9.38;;;;;;;26.76;42.58;100811.97;5075988;28;20051;-64
2021/07/23 10:10:09;;;;;;;16.65;9.73;;;;;;;26.75;42.53;100810.34;5057607;28;20052;-65
2021/07/23 10:12:37;;;;;;;15.35;9.38;;;;;;;26.72;42.79;100797.88;5075680;28;20044;-64
2021/07/23 10:15:06;;;;;;;15.07;9.20;;;;;;;26.86;42.56;100796.91;5041432;28;20048;-65
2021/07/23 10:17:34;;;;;;;15.32;9.95;;;;;;;26.88;42.57;100797.28;5075473;28;20044;-63
2021/07/23 10:20:03;;;;;;;11.48;9.73;;;;;;;27.34;41.75;100780.53;5058073;28;20057;-65
2021/07/23 10:22:30;;;;;;;13.07;9.23;;;;;;;27.23;41.96;100775.00;5075559;28;20055;-64
2021/07/23 10:24:58;;;;;;;12.60;9.27;;;;;;;26.93;42.65;100777.03;5057445;28;20617;-64
2021/07/23 10:27:25;;;;;;;13.40;8.60;;;;;;;26.95;42.48;100766.91;5057943;28;20060;-64
2021/07/23 10:29:53;;;;;;;14.82;9.43;;;;;;;27.02;42.46;100758.34;5075066;28;20057;-63
2021/07/23 10:32:24;;;;;;;12.90;8.23;;;;;;;27.07;42.09;100748.56;5075178;28;20040;-64
2021/07/23 10:34:53;;;;;;;12.57;9.18;;;;;;;27.35;42.10;100749.00;5057480;28;20048;-67
2021/07/23 10:37:30;;;;;;;15.77;9.63;;;;;;;27.08;42.35;100756.63;5075194;28;20048;-64
2021/07/23 10:40:09;;;;;;;12.63;9.52;;;;;;;26.82;42.92;100753.72;5074858;28;20052;-64
2021/07/23 10:42:37;;;;;;;17.13;9.82;;;;;;;26.67;44.18;100742.59;5075075;28;20598;-64
2021/07/23 10:45:12;;;;;;;15.13;10.40;;;;;;;26.89;44.48;100742.34;5074987;28;20064;-66
2021/07/23 10:47:51;;;;;;;18.98;9.23;;;;;;;27.23;44.01;100731.78;5074765;28;20064;-64
2021/07/23 10:50:28;;;;;;;17.67;10.05;;;;;;;27.34;43.93;100715.47;5056942;28;20396;-64
2021/07/23 10:52:55;;;;;;;13.32;9.57;;;;;;;27.33;44.02;100716.69;5074651;28;20051;-64
2021/07/23 10:55:24;;;;;;;13.48;10.07;;;;;;;26.89;43.96;100719.72;5074187;28;20063;-64
2021/07/23 10:58:09;;;;;;;16.25;10.10;;;;;;;26.94;44.28;100716.41;5094514;28;20044;-64
2021/07/23 11:00:46;;;;;;;16.65;9.35;;;;;;;26.81;44.36;100709.72;5094348;28;20052;-65
2021/07/23 11:03:43;;;;;;;13.90;9.10;;;;;;;27.03;44.12;100691.25;5094707;28;20055;-64
2021/07/23 11:06:23;;;;;;;18.08;9.73;;;;;;;27.13;44.25;100701.63;5094668;28;20055;-65
2021/07/23 11:08:58;;;;;;;13.57;9.68;;;;;;;27.18;43.35;100699.09;5094677;28;20055;-64
2021/07/23 11:11:27;;;;;;;15.40;10.45;;;;;;;27.20;44.08;100704.34;5094425;28;20048;-64
2021/07/23 11:13:54;;;;;;;11.65;8.85;;;;;;;27.37;43.57;100680.69;5094552;28;20040;-64
2021/07/23 11:16:27;;;;;;;15.00;9.07;;;;;;;27.19;41.38;100678.09;5076869;28;20048;-64
2021/07/23 11:18:58;;;;;;;13.02;8.73;;;;;;;27.26;40.91;100677.16;5094397;28;20044;-64
2021/07/23 11:21:36;;;;;;;17.77;8.57;;;;;;;27.56;40.63;100662.97;5094423;28;20044;-65
2021/07/23 11:24:13;;;;;;;15.40;8.68;;;;;;;27.69;40.34;100664.75;5093551;28;20058;-64
2021/07/23 11:26:49;;;;;;;12.93;8.52;;;;;;;27.88;40.96;100674.53;5094264;28;20048;-66
2021/07/23 11:29:38;;;;;;;14.25;8.77;;;;;;;28.15;39.84;100669.63;5094112;28;20051;-66